Time;durP1;ratioP1;P1;durP2;ratioP2;P2;SDS_P1;SDS_P2;PMS_P1;PMS_P2;Temp;Humidity;BMP_temperature;BMP_pressure;BME280_temperature;BME280_humidity;BME280_pressure;Samples;Min_cycle;Max_cycle;Signal;HPM_P1;HPM_P2
2021/10/08 00:01:58;;;;;;;43.97;17.90;;;;;;;5.68;63.25;100213.81;2148519;83;20955;-76
2021/10/08 00:04:59;;;;;;;34.43;17.40;;;;;;;5.34;63.60;100211.53;2148659;83;20931;-79
2021/10/08 00:08:01;;;;;;;38.40;17.43;;;;;;;5.04;64.58;100215.48;2148914;83;21117;-80
2021/10/08 00:11:02;;;;;;;35.77;19.43;;;;;;;4.84;65.41;100208.31;2148951;83;20927;-79
2021/10/08 00:14:02;;;;;;;36.20;15.47;;;;;;;4.68;65.97;100202.67;2149273;83;21006;-79
2021/10/08 00:17:04;;;;;;;37.37;15.73;;;;;;;4.52;66.07;100208.19;2148677;83;20959;-78
2021/10/08 00:20:04;;;;;;;32.57;14.70;;;;;;;4.32;66.45;100206.61;2148694;83;20934;-79
2021/10/08 00:23:05;;;;;;;34.50;17.00;;;;;;;4.24;67.04;100207.85;2148903;83;20900;-79
2021/10/08 00:26:05;;;;;;;37.93;15.17;;;;;;;4.20;67.35;100207.18;2148961;83;20927;-78
2021/10/08 00:29:06;;;;;;;109.60;66.00;;;;;;;4.14;67.69;100209.41;2148789;83;20916;-80
2021/10/08 00:32:06;;;;;;;60.23;32.53;;;;;;;6.39;80.52;100211.91;2148663;83;20920;-79
2021/10/08 00:35:07;;;;;;;52.37;27.67;;;;;;;9.60;75.02;100200.98;2148650;83;21307;-79
2021/10/08 00:38:08;;;;;;;43.20;23.67;;;;;;;9.41;62.19;100203.27;2148830;83;21379;-79
2021/10/08 00:41:10;;;;;;;33.60;18.13;;;;;;;8.13;60.71;100205.40;2148500;82;20978;-79
2021/10/08 00:44:10;;;;;;;38.27;22.47;;;;;;;7.00;60.48;100199.36;2148799;83;20967;-79
2021/10/08 00:47:11;;;;;;;44.17;24.00;;;;;;;6.22;61.76;100212.36;2149199;83;20903;-78
2021/10/08 00:50:11;;;;;;;51.27;23.70;;;;;;;5.65;62.73;100212.36;2148876;83;21320;-78
2021/10/08 00:53:12;;;;;;;38.53;17.93;;;;;;;5.25;63.49;100211.92;2148250;83;21319;-78
2021/10/08 00:56:13;;;;;;;40.90;19.67;;;;;;;4.92;64.62;100216.09;2148618;83;20952;-79
2021/10/08 00:59:13;;;;;;;43.80;22.67;;;;;;;4.62;65.17;100220.44;2148700;83;20932;-78
2021/10/08 01:02:14;;;;;;;39.20;17.53;;;;;;;4.42;65.82;100215.81;2148815;83;21327;-79
2021/10/08 01:05:14;;;;;;;32.73;18.33;;;;;;;4.26;66.17;100216.59;2149073;83;21279;-79
2021/10/08 01:08:14;;;;;;;33.53;18.13;;;;;;;4.01;66.35;100219.42;2148692;83;20912;-78
2021/10/08 01:11:19;;;;;;;78.87;41.83;;;;;;;3.81;67.05;100225.09;2148757;83;20923;-81
2021/10/08 01:14:17;;;;;;;168.73;108.87;;;;;;;3.75;72.08;100224.72;2148678;83;21003;-81
2021/10/08 01:17:18;;;;;;;55.27;32.17;;;;;;;7.25;83.10;100215.68;2148934;83;21331;-83
2021/10/08 01:20:18;;;;;;;81.27;44.50;;;;;;;10.08;76.53;100208.38;2148883;83;20960;-79
2021/10/08 01:23:19;;;;;;;50.43;24.40;;;;;;;11.80;63.89;100200.97;2148741;83;20912;-78
2021/10/08 01:26:19;;;;;;;33.87;19.73;;;;;;;10.14;57.57;100213.81;2148641;83;20955;-78
2021/10/08 01:29:20;;;;;;;47.47;17.47;;;;;;;8.38;57.22;100222.09;2148788;83;20903;-78
2021/10/08 01:32:20;;;;;;;54.37;17.63;;;;;;;7.10;58.26;100225.34;2148645;83;20900;-78
2021/10/08 01:35:21;;;;;;;31.60;15.87;;;;;;;6.13;59.89;100222.27;2148898;83;21272;-78
2021/10/08 01:38:21;;;;;;;27.07;14.73;;;;;;;5.42;60.87;100228.38;2149083;83;20927;-78
2021/10/08 01:41:22;;;;;;;34.73;16.97;;;;;;;4.81;61.69;100228.83;2141183;82;21029;-78
2021/10/08 01:44:23;;;;;;;33.67;17.17;;;;;;;4.32;62.87;100230.27;2138647;83;20979;-79
2021/10/08 01:47:23;;;;;;;39.57;16.13;;;;;;;3.91;63.75;100236.47;2138773;83;20932;-79
2021/10/08 01:50:24;;;;;;;83.83;47.33;;;;;;;3.63;64.64;100240.36;2138506;83;20931;-80
2021/10/08 01:53:25;;;;;;;108.17;55.93;;;;;;;5.07;82.17;100230.29;2138579;83;20956;-78
2021/10/08 01:56:25;;;;;;;43.40;25.87;;;;;;;8.11;70.87;100223.06;2138558;83;20979;-78
2021/10/08 01:59:26;;;;;;;41.00;19.47;;;;;;;7.46;62.71;100220.57;2138709;83;20920;-79
2021/10/08 02:02:27;;;;;;;33.83;16.13;;;;;;;6.42;61.82;100221.55;2138936;83;21312;-78
2021/10/08 02:05:27;;;;;;;35.67;18.43;;;;;;;5.61;62.58;100224.66;2139227;83;21287;-79
2021/10/08 02:08:28;;;;;;;41.87;20.13;;;;;;;5.03;63.21;100225.34;2138815;83;20995;-78
2021/10/08 02:11:29;;;;;;;31.83;17.10;;;;;;;4.60;64.16;100227.22;2139245;83;20916;-78
2021/10/08 02:14:29;;;;;;;33.03;16.70;;;;;;;4.30;64.88;100228.89;2138848;83;20956;-77
2021/10/08 02:17:30;;;;;;;43.93;17.87;;;;;;;4.04;65.40;100233.81;2139004;83;20940;-78
2021/10/08 02:20:30;;;;;;;109.03;23.87;;;;;;;3.81;66.15;100233.73;2139256;83;20924;-78
2021/10/08 02:23:31;;;;;;;100.93;19.37;;;;;;;3.64;66.50;100236.09;2138928;83;20932;-79
2021/10/08 02:26:31;;;;;;;61.57;20.43;;;;;;;3.44;66.76;100241.28;2139019;83;20916;-80
2021/10/08 02:29:31;;;;;;;73.80;44.20;;;;;;;3.48;78.41;100249.74;2139403;83;20916;-81
2021/10/08 02:32:32;;;;;;;207.03;135.93;;;;;;;7.17;84.25;100230.02;2138824;83;20968;-81
2021/10/08 02:35:33;;;;;;;58.53;28.60;;;;;;;10.12;75.60;100229.42;2139431;83;20931;-81
2021/10/08 02:38:33;;;;;;;175.30;40.00;;;;;;;12.17;70.67;100216.41;2139394;83;20963;-79
2021/10/08 02:41:34;;;;;;;32.03;17.00;;;;;;;12.77;57.81;100222.35;2139318;82;20993;-79
2021/10/08 02:44:34;;;;;;;29.33;15.80;;;;;;;10.51;53.69;100231.70;2139155;83;21358;-78
2021/10/08 02:47:35;;;;;;;26.60;14.00;;;;;;;8.48;54.21;100239.86;2139299;83;20912;-79
2021/10/08 02:50:36;;;;;;;21.33;12.20;;;;;;;7.02;55.51;100252.25;2139278;83;20979;-78
2021/10/08 02:53:36;;;;;;;24.23;12.23;;;;;;;5.91;56.93;100260.41;2139407;83;20924;-79
2021/10/08 02:56:37;;;;;;;27.90;14.03;;;;;;;5.05;58.42;100266.44;2139161;83;20995;-79
2021/10/08 02:59:39;;;;;;;30.03;13.63;;;;;;;4.42;59.87;100264.94;2139181;83;20940;-79
2021/10/08 03:02:39;;;;;;;29.53;13.00;;;;;;;3.88;60.95;100267.68;2138505;83;21355;-79
2021/10/08 03:05:42;;;;;;;24.43;12.70;;;;;;;3.50;62.08;100279.12;2139018;83;20936;-78
2021/10/08 03:08:42;;;;;;;24.57;13.43;;;;;;;3.18;63.18;100276.67;2138860;83;20920;-78
2021/10/08 03:11:46;;;;;;;34.83;15.13;;;;;;;2.96;64.22;100279.96;2139648;83;21299;-78
2021/10/08 03:14:47;;;;;;;55.87;32.17;;;;;;;2.81;65.32;100276.00;2139860;83;21051;-81
2021/10/08 03:17:47;;;;;;;105.83;61.17;;;;;;;3.88;84.71;100271.55;2140349;83;20952;-78
2021/10/08 03:20:48;;;;;;;54.77;31.77;;;;;;;7.82;76.67;100263.38;2139279;83;20947;-78
2021/10/08 03:23:48;;;;;;;35.10;20.33;;;;;;;7.43;62.44;100265.89;2139585;83;20936;-78
2021/10/08 03:26:49;;;;;;;37.30;18.63;;;;;;;6.12;60.88;100281.41;2139656;83;20916;-79
2021/10/08 03:29:49;;;;;;;55.77;22.57;;;;;;;5.15;61.25;100274.31;2139387;83;21006;-79
2021/10/08 03:32:50;;;;;;;45.23;14.27;;;;;;;4.49;62.65;100277.42;2139350;83;21332;-79
2021/10/08 03:35:50;;;;;;;28.33;13.60;;;;;;;4.00;62.91;100283.92;2139350;83;20972;-78
2021/10/08 03:38:53;;;;;;;39.17;17.80;;;;;;;3.55;63.57;100288.05;2115057;83;21081;-79
2021/10/08 03:41:54;;;;;;;30.73;14.20;;;;;;;3.23;65.18;100291.16;2146380;82;20971;-79
2021/10/08 03:44:58;;;;;;;39.03;14.50;;;;;;;3.04;65.57;100297.23;2148206;83;21066;-78
2021/10/08 03:48:19;;;;;;;52.47;17.50;;;;;;;2.86;66.50;100302.98;2147906;83;20943;-79
2021/10/08 03:51:05;;;;;;;30.63;14.37;;;;;;;2.69;66.66;100303.56;2145572;83;20935;-79
2021/10/08 03:54:05;;;;;;;43.50;14.47;;;;;;;2.59;67.27;100310.16;2147409;83;20924;-79
2021/10/08 03:57:06;;;;;;;58.37;16.67;;;;;;;2.53;68.08;100315.80;2148003;83;20987;-79
2021/10/08 04:00:07;;;;;;;25.23;12.90;;;;;;;2.47;68.48;100312.81;2148219;83;20950;-78
2021/10/08 04:03:08;;;;;;;24.47;13.67;;;;;;;2.40;67.83;100313.19;2147625;83;21027;-78
2021/10/08 04:06:09;;;;;;;36.53;20.53;;;;;;;2.25;68.18;100317.31;2147960;83;21284;-81
2021/10/08 04:09:09;;;;;;;95.13;53.03;;;;;;;3.28;86.36;100318.55;2148283;83;20932;-81
2021/10/08 04:12:10;;;;;;;243.87;145.50;;;;;;;7.62;84.39;100302.31;2148277;83;20916;-81
2021/10/08 04:15:10;;;;;;;123.90;73.97;;;;;;;10.56;73.22;100294.11;2147844;83;21018;-81
2021/10/08 04:18:14;;;;;;;39.53;22.03;;;;;;;12.21;65.43;100288.52;2147653;83;20991;-79
2021/10/08 04:21:14;;;;;;;21.83;13.57;;;;;;;12.72;56.71;100292.98;2146626;83;20907;-78
2021/10/08 04:24:15;;;;;;;27.97;12.57;;;;;;;10.50;52.58;100301.72;2145583;83;20919;-78
2021/10/08 04:27:15;;;;;;;23.60;12.13;;;;;;;8.43;53.52;100306.44;2146620;83;21622;-79
2021/10/08 04:30:16;;;;;;;40.73;14.50;;;;;;;6.98;54.94;100316.11;2146119;83;21303;-77
2021/10/08 04:33:16;;;;;;;29.20;14.10;;;;;;;5.99;56.51;100326.91;2147066;83;20939;-78
2021/10/08 04:36:17;;;;;;;79.93;40.10;;;;;;;5.26;58.30;100329.31;2147125;83;20956;-79
2021/10/08 04:39:17;;;;;;;96.67;53.33;;;;;;;6.44;66.20;100332.34;2147156;83;20927;-78
2021/10/08 04:42:18;;;;;;;108.30;35.20;;;;;;;8.81;66.74;100325.03;2147480;82;20983;-78
2021/10/08 04:45:18;;;;;;;56.37;17.77;;;;;;;11.22;58.77;100314.19;2148059;83;21083;-78
2021/10/08 04:48:19;;;;;;;53.20;14.80;;;;;;;12.70;55.00;100313.01;2146482;83;21165;-81
2021/10/08 04:51:20;;;;;;;49.23;14.40;;;;;;;13.48;53.24;100318.96;2146587;83;20987;-80
2021/10/08 04:54:20;;;;;;;333.80;37.00;;;;;;;14.31;50.66;100316.00;2147193;82;20924;-80
2021/10/08 04:57:21;;;;;;;102.40;18.60;;;;;;;14.74;49.80;100319.52;2145910;83;20994;-81
2021/10/08 05:00:22;;;;;;;52.30;19.90;;;;;;;15.36;46.93;100322.77;2148251;83;21665;-81
2021/10/08 05:03:22;;;;;;;41.00;21.73;;;;;;;15.68;43.76;100324.66;2148325;83;20946;-80
2021/10/08 05:06:23;;;;;;;152.85;25.37;;;;;;;15.29;43.46;100330.57;2147178;83;20927;-81
2021/10/08 05:09:23;;;;;;;108.37;18.07;;;;;;;15.29;44.40;100332.31;2147603;83;21375;-81
2021/10/08 05:12:27;;;;;;;60.48;17.23;;;;;;;15.51;43.60;100333.11;2148256;83;20983;-80
2021/10/08 05:15:27;;;;;;;25.40;12.75;;;;;;;15.96;43.66;100334.71;2147856;83;20967;-81
2021/10/08 05:18:28;;;;;;;26.02;12.50;;;;;;;16.02;42.51;100340.06;2147249;83;20983;-80
2021/10/08 05:21:28;;;;;;;33.25;11.95;;;;;;;13.75;40.36;100350.20;2147709;83;20931;-82
2021/10/08 05:24:29;;;;;;;50.03;13.38;;;;;;;11.04;42.75;100364.12;2148060;83;20971;-82
2021/10/08 05:27:29;;;;;;;35.47;12.90;;;;;;;9.23;45.32;100368.91;2148472;83;20931;-82
2021/10/08 05:30:30;;;;;;;33.63;12.17;;;;;;;7.84;48.08;100374.82;2147674;83;21516;-80
2021/10/08 05:33:30;;;;;;;34.30;13.33;;;;;;;6.90;50.28;100379.70;2147261;83;20955;-80
2021/10/08 05:36:31;;;;;;;24.80;12.60;;;;;;;6.12;52.92;100380.33;2147783;83;20963;-80
2021/10/08 05:39:31;;;;;;;29.30;13.13;;;;;;;5.48;54.17;100379.31;2147239;83;21150;-81
2021/10/08 05:42:32;;;;;;;29.27;11.83;;;;;;;5.12;55.83;100370.80;2155440;83;20997;-81
2021/10/08 05:45:32;;;;;;;42.40;12.90;;;;;;;4.87;57.13;100381.84;2157665;82;21042;-81
2021/10/08 05:48:33;;;;;;;34.17;12.87;;;;;;;4.74;58.21;100380.22;2158017;82;20973;-81
2021/10/08 05:51:33;;;;;;;24.40;11.43;;;;;;;4.57;59.25;100391.26;2157774;82;20994;-80
2021/10/08 05:54:34;;;;;;;31.57;12.50;;;;;;;4.47;60.12;100392.40;2157962;83;20984;-81
2021/10/08 05:57:35;;;;;;;29.93;12.70;;;;;;;4.38;60.82;100387.97;2158094;82;20933;-78
2021/10/08 06:00:35;;;;;;;28.40;12.80;;;;;;;4.38;61.06;100391.84;2158493;82;20921;-81
2021/10/08 06:03:36;;;;;;;34.13;12.63;;;;;;;4.43;62.06;100396.89;2158913;82;21095;-80
2021/10/08 06:06:36;;;;;;;29.20;12.27;;;;;;;4.45;62.18;100397.88;2158507;82;21317;-81
2021/10/08 06:09:36;;;;;;;37.47;13.27;;;;;;;4.48;62.17;100405.82;2158951;82;20933;-80
2021/10/08 06:12:37;;;;;;;38.70;12.77;;;;;;;4.59;62.28;100400.40;2158659;82;20953;-80
2021/10/08 06:15:38;;;;;;;37.70;12.67;;;;;;;4.63;62.56;100394.61;2159110;83;21045;-80
2021/10/08 06:18:40;;;;;;;30.47;11.50;;;;;;;4.69;62.87;100394.98;2159092;82;21000;-82
2021/10/08 06:21:41;;;;;;;50.10;13.60;;;;;;;4.80;62.75;100396.10;2158375;83;20901;-80
2021/10/08 06:24:41;;;;;;;39.33;13.10;;;;;;;4.92;63.09;100397.23;2158747;82;20972;-80
2021/10/08 06:27:42;;;;;;;34.37;12.87;;;;;;;5.03;63.16;100401.73;2158180;82;21077;-76
2021/10/08 06:30:42;;;;;;;33.50;12.57;;;;;;;5.15;63.13;100398.56;2158376;82;20965;-83
2021/10/08 06:33:43;;;;;;;28.60;13.90;;;;;;;5.33;63.11;100407.42;2159426;82;20945;-80
2021/10/08 06:36:43;;;;;;;34.13;13.27;;;;;;;5.54;62.85;100409.05;2158985;82;21032;-83
2021/10/08 06:39:44;;;;;;;33.90;12.90;;;;;;;5.74;62.68;100407.16;2158182;82;20953;-78
2021/10/08 06:42:44;;;;;;;33.73;12.23;;;;;;;5.94;62.33;100405.70;2149368;82;20975;-79
2021/10/08 06:45:46;;;;;;;30.67;13.13;;;;;;;6.18;62.09;100406.18;2146701;83;20998;-80
2021/10/08 06:48:46;;;;;;;28.10;11.63;;;;;;;6.45;62.07;100413.66;2147595;83;20948;-79
2021/10/08 06:51:47;;;;;;;84.43;15.10;;;;;;;6.67;61.96;100414.86;2147167;83;21272;-80
2021/10/08 06:54:47;;;;;;;33.97;11.40;;;;;;;6.87;61.62;100411.10;2147568;83;20943;-80
2021/10/08 06:57:48;;;;;;;44.60;13.13;;;;;;;7.12;60.73;100415.87;2148358;83;20955;-82
2021/10/08 07:00:52;;;;;;;26.43;12.30;;;;;;;7.38;60.29;100421.06;2148756;83;20953;-77
2021/10/08 07:03:51;;;;;;;31.07;10.83;;;;;;;7.58;60.07;100422.52;2148658;83;20979;-79
2021/10/08 07:06:51;;;;;;;34.27;10.73;;;;;;;7.74;59.01;100416.77;2148911;83;20945;-80
2021/10/08 07:09:52;;;;;;;24.83;9.30;;;;;;;7.91;57.90;100418.08;2148323;83;20947;-79
2021/10/08 07:12:52;;;;;;;30.93;10.13;;;;;;;8.07;58.03;100433.10;2148494;83;20955;-80
2021/10/08 07:15:53;;;;;;;27.20;8.40;;;;;;;8.25;57.77;100428.34;2148251;83;21034;-80
2021/10/08 07:18:55;;;;;;;19.03;8.40;;;;;;;8.45;56.23;100432.30;2148183;83;21326;-81
2021/10/08 07:21:56;;;;;;;25.80;8.77;;;;;;;8.76;56.34;100438.09;2148555;83;21011;-81
2021/10/08 07:24:56;;;;;;;33.40;10.33;;;;;;;8.91;54.84;100443.97;2148058;83;21318;-81
2021/10/08 07:27:57;;;;;;;20.67;8.13;;;;;;;8.90;54.01;100441.30;2147696;83;21569;-81
2021/10/08 07:30:57;;;;;;;27.13;8.70;;;;;;;9.00;53.81;100445.20;2147563;83;20931;-81
2021/10/08 07:33:58;;;;;;;19.53;7.90;;;;;;;9.14;53.41;100435.84;2147668;83;20943;-80
2021/10/08 07:36:58;;;;;;;26.70;8.83;;;;;;;9.22;52.70;100446.18;2146870;83;20967;-80
2021/10/08 07:39:59;;;;;;;20.97;7.93;;;;;;;9.39;52.38;100452.11;2146974;83;20970;-80
2021/10/08 07:42:59;;;;;;;28.67;8.10;;;;;;;9.53;52.86;100454.88;2146832;82;20971;-80
2021/10/08 07:46:01;;;;;;;25.80;8.27;;;;;;;9.67;52.23;100459.38;2147345;83;21031;-81
2021/10/08 07:49:02;;;;;;;26.67;9.13;;;;;;;9.87;51.99;100460.19;2130231;83;20940;-80
2021/10/08 07:52:03;;;;;;;30.93;8.77;;;;;;;10.03;51.13;100464.30;2147157;83;21032;-79
2021/10/08 07:55:04;;;;;;;22.27;8.53;;;;;;;10.19;49.93;100470.59;2147877;83;20915;-82
2021/10/08 07:58:04;;;;;;;80.37;12.87;;;;;;;10.30;49.32;100481.48;2148286;83;20975;-80
2021/10/08 08:01:05;;;;;;;19.00;7.83;;;;;;;10.43;49.58;100480.75;2147935;83;20928;-81
2021/10/08 08:04:06;;;;;;;23.27;8.57;;;;;;;10.57;48.37;100484.30;2147642;83;20936;-81
2021/10/08 08:07:07;;;;;;;22.53;8.43;;;;;;;10.65;47.75;100482.45;2147534;83;20943;-81
2021/10/08 08:10:08;;;;;;;30.40;8.37;;;;;;;10.66;47.97;100486.84;2147025;83;20935;-82
2021/10/08 08:13:09;;;;;;;23.77;8.67;;;;;;;10.77;48.19;100488.13;2147847;83;21027;-81
2021/10/08 08:16:09;;;;;;;21.23;8.40;;;;;;;10.77;46.72;100485.52;2147608;83;20947;-81
2021/10/08 08:19:11;;;;;;;37.25;8.60;;;;;;;10.83;46.74;100483.12;2147914;83;21542;-83
2021/10/08 08:22:12;;;;;;;22.97;8.07;;;;;;;11.01;47.33;100484.63;2147884;83;20904;-77
2021/10/08 08:25:12;;;;;;;25.50;8.50;;;;;;;11.24;47.09;100486.75;2148189;83;21351;-84
2021/10/08 08:28:13;;;;;;;20.27;8.93;;;;;;;11.32;44.74;100490.14;2147657;83;21326;-81
2021/10/08 08:31:15;;;;;;;31.15;9.50;;;;;;;11.30;44.74;100485.69;2147822;83;20909;-80
2021/10/08 08:34:16;;;;;;;26.37;8.53;;;;;;;11.35;43.43;100484.13;2147890;83;20975;-79
2021/10/08 08:37:16;;;;;;;23.87;9.03;;;;;;;11.47;44.46;100484.13;2147619;83;20955;-81
2021/10/08 08:40:17;;;;;;;25.77;9.38;;;;;;;11.54;44.53;100482.61;2147539;83;20935;-82
2021/10/08 08:43:18;;;;;;;18.53;8.23;;;;;;;11.70;44.30;100486.62;2139639;82;20990;-83
2021/10/08 08:46:19;;;;;;;24.27;9.00;;;;;;;11.87;42.00;100483.30;2138051;83;20967;-83
2021/10/08 08:49:19;;;;;;;27.20;9.48;;;;;;;11.82;42.31;100490.99;2137992;83;20908;-85
2021/10/08 08:52:21;;;;;;;25.27;8.55;;;;;;;11.96;43.52;100479.25;2137499;83;21034;-82
2021/10/08 08:55:21;;;;;;;14.68;8.90;;;;;;;12.08;42.15;100482.25;2137640;83;21424;-81
2021/10/08 08:58:22;;;;;;;26.17;9.05;;;;;;;12.00;40.24;100485.05;2137432;83;20947;-81
2021/10/08 09:01:23;;;;;;;24.13;8.80;;;;;;;11.96;40.67;100491.02;2137101;83;20948;-81
2021/10/08 09:04:27;;;;;;;26.93;8.53;;;;;;;12.00;40.57;100479.81;2137548;83;21386;-81
2021/10/08 09:07:26;;;;;;;30.55;9.25;;;;;;;12.04;39.67;100480.38;2137688;83;21369;-83
2021/10/08 09:10:26;;;;;;;21.93;7.58;;;;;;;12.10;40.73;100482.30;2137707;83;20971;-82
2021/10/08 09:13:27;;;;;;;21.37;8.03;;;;;;;12.19;40.38;100471.27;2137995;83;20948;-82
2021/10/08 09:16:27;;;;;;;18.82;8.30;;;;;;;12.30;39.50;100477.72;2138485;83;21398;-83
2021/10/08 09:19:28;;;;;;;19.05;8.23;;;;;;;12.37;39.00;100477.06;2139210;83;20936;-81
2021/10/08 09:22:29;;;;;;;19.37;7.78;;;;;;;12.44;38.81;100486.47;2138071;83;20935;-82
2021/10/08 09:28:32;;;;;;;19.80;9.18;;;;;;;12.71;39.70;100486.39;2113890;83;21027;-82
2021/10/08 09:31:33;;;;;;;27.77;8.68;;;;;;;12.78;39.01;100480.91;2137611;83;20967;-83
2021/10/08 09:34:35;;;;;;;20.77;8.30;;;;;;;12.80;38.14;100475.72;2114125;83;20908;-82
2021/10/08 09:37:36;;;;;;;24.37;8.63;;;;;;;12.84;38.81;100477.58;2138202;83;20944;-83
2021/10/08 09:40:40;;;;;;;20.95;8.65;;;;;;;12.85;36.75;100480.24;2137878;83;20968;-83
2021/10/08 09:43:41;;;;;;;31.80;9.33;;;;;;;12.78;35.89;100476.98;2138853;82;21044;-82
2021/10/08 09:46:41;;;;;;;15.60;7.75;;;;;;;12.73;36.12;100474.23;2138896;83;20963;-82
2021/10/08 09:49:42;;;;;;;17.15;8.58;;;;;;;12.80;35.54;100474.41;2139117;83;21280;-82
2021/10/08 09:52:42;;;;;;;25.55;8.78;;;;;;;12.79;34.70;100466.08;2138816;83;20920;-83
2021/10/08 09:55:43;;;;;;;28.40;8.65;;;;;;;12.84;34.96;100463.16;2139230;83;20943;-80
2021/10/08 09:58:43;;;;;;;35.80;10.00;;;;;;;12.83;35.02;100460.08;2137766;83;21110;-78
2021/10/08 10:01:45;;;;;;;25.68;8.35;;;;;;;13.01;35.68;100464.56;2137608;83;20971;-80
2021/10/08 10:04:46;;;;;;;21.48;8.48;;;;;;;13.08;33.81;100465.19;2137903;83;20935;-83
2021/10/08 10:07:47;;;;;;;23.22;9.38;;;;;;;13.12;34.70;100462.23;2137917;83;21291;-82
2021/10/08 10:10:47;;;;;;;17.60;8.30;;;;;;;13.20;34.94;100461.63;2138797;83;20944;-81
2021/10/08 10:13:47;;;;;;;31.33;8.93;;;;;;;13.15;31.96;100457.07;2138347;83;20939;-81
2021/10/08 10:16:48;;;;;;;22.50;9.15;;;;;;;13.16;34.65;100472.84;2138178;83;20988;-82
2021/10/08 10:19:49;;;;;;;18.55;8.63;;;;;;;13.22;33.00;100465.17;2137915;83;20944;-80
2021/10/08 10:22:49;;;;;;;29.55;8.85;;;;;;;13.29;33.32;100477.61;2113226;83;21371;-82
2021/10/08 10:25:50;;;;;;;18.43;8.33;;;;;;;13.42;34.28;100472.69;2138072;83;20947;-82
2021/10/08 10:28:50;;;;;;;23.30;8.33;;;;;;;13.41;32.60;100470.48;2138711;83;21371;-81
2021/10/08 10:31:51;;;;;;;25.97;8.60;;;;;;;13.56;34.13;100475.23;2138760;83;20935;-82
2021/10/08 10:34:51;;;;;;;18.60;8.65;;;;;;;13.61;33.12;100479.76;2137322;83;20999;-83
2021/10/08 10:37:55;;;;;;;32.35;9.88;;;;;;;13.65;33.19;100472.84;2137880;83;20959;-82
2021/10/08 10:40:56;;;;;;;14.18;8.30;;;;;;;13.59;32.46;100472.70;2138059;83;20996;-80
2021/10/08 10:43:57;;;;;;;34.30;10.30;;;;;;;13.67;33.04;100477.71;2149488;83;21344;-79
2021/10/08 10:47:02;;;;;;;24.07;9.08;;;;;;;13.81;32.38;100476.74;2151113;83;21041;-82
2021/10/08 10:50:00;;;;;;;29.82;9.35;;;;;;;13.81;31.80;100471.49;2151682;83;20948;-81
2021/10/08 10:53:00;;;;;;;20.82;7.40;;;;;;;13.83;31.69;100473.30;2152271;82;21287;-82
2021/10/08 10:56:03;;;;;;;21.42;8.13;;;;;;;13.94;31.78;100463.98;2125785;83;20912;-83
2021/10/08 10:59:03;;;;;;;17.48;7.95;;;;;;;14.02;31.61;100466.37;2152846;82;21307;-80
2021/10/08 11:02:11;;;;;;;23.52;8.33;;;;;;;14.05;31.30;100468.18;2152586;82;21362;-81
2021/10/08 11:05:19;;;;;;;24.60;9.38;;;;;;;14.11;31.80;100464.81;2151948;82;20943;-80
2021/10/08 11:08:15;;;;;;;24.92;8.45;;;;;;;14.26;33.25;100467.36;2151410;83;20959;-81
2021/10/08 11:11:16;;;;;;;25.27;9.30;;;;;;;14.36;32.21;100465.83;2152904;82;21343;-82
2021/10/08 11:14:16;;;;;;;19.05;9.18;;;;;;;14.32;32.33;100461.36;2152289;82;20978;-82
2021/10/08 11:17:17;;;;;;;73.52;13.10;;;;;;;14.33;33.51;100461.82;2151582;82;20994;-81
2021/10/08 11:20:17;;;;;;;19.20;8.30;;;;;;;14.38;33.53;100460.18;2151933;82;20970;-82
2021/10/08 11:23:18;;;;;;;57.78;11.50;;;;;;;14.34;32.80;100459.22;2152453;82;20938;-81
2021/10/08 11:26:21;;;;;;;22.48;8.53;;;;;;;14.33;33.18;100459.19;2152064;83;21006;-83
2021/10/08 11:29:24;;;;;;;15.18;8.05;;;;;;;14.36;33.48;100461.89;2151884;83;20946;-83
2021/10/08 11:32:25;;;;;;;19.95;8.28;;;;;;;14.44;33.66;100475.23;2152502;82;20939;-81
2021/10/08 11:35:25;;;;;;;23.92;10.85;;;;;;;14.43;31.50;100467.77;2151556;82;20940;-82
2021/10/08 11:38:26;;;;;;;234.62;24.98;;;;;;;14.39;32.10;100466.32;2151288;82;20970;-80
2021/10/08 11:41:27;;;;;;;13.85;7.12;;;;;;;14.41;32.84;100466.81;2150800;82;21647;-83
2021/10/08 11:44:35;;;;;;;17.12;8.10;;;;;;;14.46;32.32;100458.64;2137499;82;20968;-83
2021/10/08 11:47:49;;;;;;;22.85;7.85;;;;;;;14.51;32.22;100462.26;2136830;83;20967;-81
2021/10/08 11:51:11;;;;;;;20.17;7.20;;;;;;;14.55;32.78;100456.64;2137615;83;21023;-80
2021/10/08 11:53:55;;;;;;;28.12;7.78;;;;;;;14.59;32.09;100461.11;2133782;83;20971;-81
2021/10/08 11:56:55;;;;;;;20.00;7.00;;;;;;;14.55;32.20;100450.95;2137455;83;21034;-80
2021/10/08 11:59:56;;;;;;;17.25;7.28;;;;;;;14.42;32.13;100462.05;2138274;83;20964;-83
2021/10/08 12:02:57;;;;;;;25.68;7.62;;;;;;;14.42;32.13;100462.05;2137931;83;20984;-81
2021/10/08 12:05:58;;;;;;;21.23;7.50;;;;;;;14.46;31.70;100457.75;2137163;83;21367;-79
2021/10/08 12:09:04;;;;;;;24.85;8.35;;;;;;;14.52;32.75;100456.58;2138170;83;20991;-82
2021/10/08 12:12:01;;;;;;;22.37;7.75;;;;;;;14.54;33.05;100450.50;2137516;83;20984;-82
2021/10/08 12:15:02;;;;;;;19.42;7.58;;;;;;;14.58;32.54;100453.65;2138436;83;20955;-81
2021/10/08 12:18:02;;;;;;;16.27;7.67;;;;;;;14.60;33.23;100453.25;2136417;83;21014;-81
2021/10/08 12:21:03;;;;;;;24.92;8.33;;;;;;;14.60;32.96;100455.88;2138015;83;21312;-83
2021/10/08 12:24:03;;;;;;;85.12;13.55;;;;;;;14.62;33.58;100457.23;2138333;83;20944;-81
2021/10/08 12:27:06;;;;;;;25.65;7.85;;;;;;;15.43;34.51;100455.78;2139375;83;20983;-81
2021/10/08 12:30:06;;;;;;;26.10;8.48;;;;;;;16.61;32.49;100451.11;2138321;83;20951;-81
2021/10/08 12:33:07;;;;;;;33.02;8.60;;;;;;;17.50;32.14;100446.89;2138118;83;20904;-80
2021/10/08 12:36:07;;;;;;;31.93;7.55;;;;;;;18.11;30.33;100448.73;2137381;83;20968;-82
2021/10/08 12:39:08;;;;;;;34.78;8.25;;;;;;;18.20;27.97;100450.98;2137267;83;20944;-81
2021/10/08 12:42:08;;;;;;;23.80;7.15;;;;;;;17.70;29.12;100451.06;2140007;83;20968;-81
2021/10/08 12:45:18;;;;;;;24.90;8.15;;;;;;;17.50;28.89;100459.20;2157921;83;20937;-83
2021/10/08 12:48:11;;;;;;;21.87;7.67;;;;;;;17.55;29.22;100461.45;2156282;82;21015;-81
2021/10/08 12:51:12;;;;;;;22.27;6.62;;;;;;;17.58;28.36;100450.03;2156853;82;20963;-81
2021/10/08 12:54:13;;;;;;;53.63;9.55;;;;;;;17.57;28.67;100450.47;2157586;82;21139;-82
2021/10/08 12:57:14;;;;;;;20.10;7.50;;;;;;;17.53;31.08;100460.99;2157051;82;21368;-82
2021/10/08 13:00:14;;;;;;;28.83;7.37;;;;;;;17.65;29.30;100455.82;2157477;82;21472;-81
2021/10/08 13:03:15;;;;;;;18.15;6.47;;;;;;;17.68;32.48;100448.84;2157357;82;20917;-82
2021/10/08 13:06:15;;;;;;;20.17;6.30;;;;;;;17.92;30.76;100450.80;2157102;82;20949;-82
2021/10/08 13:09:18;;;;;;;19.05;6.62;;;;;;;17.90;29.45;100450.34;2157532;82;20941;-81
2021/10/08 13:12:18;;;;;;;19.23;6.22;;;;;;;18.04;29.75;100451.33;2157558;82;20913;-81
2021/10/08 13:15:20;;;;;;;15.48;6.58;;;;;;;18.17;29.43;100448.33;2158036;82;20941;-82
2021/10/08 13:18:21;;;;;;;27.42;6.22;;;;;;;18.03;28.53;100453.52;2158000;82;20976;-80
2021/10/08 13:21:21;;;;;;;14.07;6.40;;;;;;;16.92;28.67;100446.69;2159063;83;20917;-81
2021/10/08 13:24:22;;;;;;;10.55;5.45;;;;;;;15.63;30.37;100446.09;2159125;82;20981;-82
2021/10/08 13:27:22;;;;;;;9.13;5.83;;;;;;;15.63;30.37;100446.09;2159188;82;20965;-82
2021/10/08 13:30:23;;;;;;;18.75;5.70;;;;;;;15.28;31.54;100452.88;2159063;82;20964;-81
2021/10/08 13:33:26;;;;;;;20.70;6.07;;;;;;;15.17;32.30;100442.16;2159580;82;20988;-81
2021/10/08 13:36:27;;;;;;;16.80;6.33;;;;;;;14.95;31.38;100443.92;2159063;82;21157;-81
2021/10/08 13:39:27;;;;;;;27.13;6.95;;;;;;;14.79;32.55;100448.41;2158843;82;20910;-81
2021/10/08 13:42:28;;;;;;;23.70;6.00;;;;;;;14.65;32.12;100439.78;2158862;82;20953;-80
2021/10/08 13:45:28;;;;;;;15.60;5.12;;;;;;;14.59;33.04;100440.08;2158872;83;20969;-82
2021/10/08 13:48:29;;;;;;;16.52;5.55;;;;;;;14.57;33.48;100446.63;2159126;82;21007;-81
2021/10/08 13:51:30;;;;;;;15.95;6.17;;;;;;;14.44;31.47;100439.33;2159692;82;20976;-82
2021/10/08 13:54:30;;;;;;;12.90;5.42;;;;;;;14.28;31.03;100445.07;2159713;82;20957;-82